Aérodrome :
LOGIN :

S'inscrire | Disclaimer

   EN    FR    IT 

 










Légende :    VFR   VFR Marginal   IFR   IFR Intensif   IFR Très Intensif
Visi : 
Plafond : 
>= 8 km
>= 3000ft
5 à 8 km
1000 à 3000 ft
1500m à 5 km
500 à 1000 ft
800 à 1500m
200 à 500 ft
< 800m
< 200 ft
Symboles :   Orages  Brouillard  Fortes neiges  Fortes précipitations  Vent > 20 kt
SIGMETs :   Divers  Orages  Givrage  Turbulence  Onde Orograph.  Cendres Volcan.







- Altitude de l'aérodrome : 187 ft


ETNW - Wunstorf AB

DERNIER METAR :
  • 190543Z 26011KT 9999 -RA SCT016 BKN070 07/04 Q1014 BLU BLU TEMPO GRN

METARs EXPIRÉS :
  • 190520Z 26010KT 9999 -RA BKN016 08/03 Q1014 WHT WHT TEMPO GRN
  • 190445Z 25009KT 9999 BKN020 BKN220 08/03 Q1014 WHT
  • 190420Z 25010KT 9999 FEW020 BKN220 08/02 Q1014 BLU+

TAF COR TAF ETNW
Valide du 19 à 06h jusqu'au 20 à 06h UTC


190544Z 1906/2006 25012KT 9999 NSW BKN030
TEMPO 1906/1912 25012G22KT 4000 RA BKN010
TEMPO 1912/1914 25015G25KT 9999 NSW SCT010 BKN020 BY ETGL
Pas de NOTAMs connus pour ce terrain.



MET'MAP, la Météo Aéronautique d'un coup d'oeil ! - Copyright ORBIFLY Décembre 2007 - Disclaimer

ORBIFLY MET'MAP TEAM :

Programmation & Développement : Alexandra Zaïnal
Conception & Développement : Baudouin d'Aumeries
Co-Programmation & Développement : Marc-Olivier Méhu
Soutien technique & logistique : Manuel Goepfert

Contact : metmap@orbifly.com




SOURCES & CREDITS :

   NOAA